createdAt,value
2017-04-03T00:00:18.454Z,0
2017-04-03T00:01:28.419Z,0
2017-04-03T00:02:38.009Z,0
2017-04-03T00:03:47.916Z,0
2017-04-03T00:04:57.866Z,0
2017-04-03T00:06:07.479Z,0
2017-04-03T00:07:17.085Z,0
2017-04-03T00:08:27.032Z,0
2017-04-03T00:09:36.974Z,0
2017-04-03T00:10:46.915Z,0
2017-04-03T00:11:56.854Z,0
2017-04-03T00:13:06.459Z,0
2017-04-03T00:14:15.761Z,0
2017-04-03T00:15:25.790Z,0
2017-04-03T00:16:35.690Z,0
2017-04-03T00:17:45.691Z,0
2017-04-03T00:18:55.663Z,0
2017-04-03T00:20:05.264Z,0
2017-04-03T00:21:15.187Z,0
2017-04-03T00:22:25.428Z,0
2017-04-03T00:23:35.039Z,0
2017-04-03T00:24:44.767Z,0
2017-04-03T00:25:54.665Z,0
2017-04-03T00:27:04.374Z,0
2017-04-03T00:28:14.589Z,0
2017-04-03T00:29:24.532Z,0
2017-04-03T00:30:34.482Z,0
2017-04-03T00:31:44.445Z,0
2017-04-03T00:32:54.385Z,0
2017-04-03T00:34:04.259Z,0
2017-04-03T00:35:13.858Z,0
2017-04-03T00:36:23.841Z,0
2017-04-03T00:37:33.445Z,0
2017-04-03T00:38:43.150Z,0
2017-04-03T00:39:53.062Z,0
2017-04-03T00:41:02.359Z,0
2017-04-03T00:42:12.278Z,0
2017-04-03T00:43:22.228Z,0
2017-04-03T00:44:31.821Z,0
2017-04-03T00:45:42.075Z,0
2017-04-03T00:46:51.681Z,0
2017-04-03T00:48:01.268Z,0
2017-04-03T00:49:11.185Z,0
2017-04-03T00:50:20.817Z,0
2017-04-03T00:51:30.998Z,0
2017-04-03T00:52:40.929Z,0
2017-04-03T00:53:50.919Z,0
2017-04-03T00:55:00.929Z,0
2017-04-03T00:56:10.838Z,0
2017-04-03T00:57:20.645Z,0
2017-04-03T00:58:30.277Z,0
2017-04-03T00:59:39.889Z,0
2017-04-03T01:00:49.834Z,0
2017-04-03T01:01:59.756Z,0
2017-04-03T01:03:10.131Z,0
2017-04-03T01:04:20.092Z,0
2017-04-03T01:05:30.075Z,0
2017-04-03T01:06:40.036Z,0
2017-04-03T01:07:49.302Z,0
2017-04-03T01:08:59.291Z,0
2017-04-03T01:10:09.194Z,0
2017-04-03T01:11:18.823Z,0
2017-04-03T01:12:28.766Z,0
2017-04-03T01:13:38.485Z,0
2017-04-03T01:14:48.810Z,0
2017-04-03T01:15:58.809Z,0
2017-04-03T01:17:08.744Z,0
2017-04-03T01:18:18.514Z,0
2017-04-03T01:19:28.499Z,0
2017-04-03T01:20:38.418Z,0
2017-04-03T01:21:48.481Z,0
2017-04-03T01:22:58.386Z,0
2017-04-03T01:24:08.582Z,0
2017-04-03T01:25:18.601Z,0
2017-04-03T01:26:28.887Z,0
2017-04-03T01:27:38.826Z,0
2017-04-03T01:28:48.448Z,0
2017-04-03T01:29:58.375Z,0
2017-04-03T01:31:08.284Z,0
2017-04-03T01:32:18.510Z,0
2017-04-03T01:33:27.830Z,0
2017-04-03T01:34:37.729Z,0
2017-04-03T01:35:47.837Z,0
2017-04-03T01:36:57.745Z,0
2017-04-03T01:38:07.917Z,0
2017-04-03T01:39:17.826Z,0
2017-04-03T01:40:27.432Z,0
2017-04-03T01:41:37.356Z,0
2017-04-03T01:42:46.654Z,0
2017-04-03T01:43:56.843Z,0
2017-04-03T01:45:06.744Z,0
2017-04-03T01:46:16.421Z,0
2017-04-03T01:47:26.271Z,0
2017-04-03T01:48:36.213Z,0
2017-04-03T01:49:46.531Z,0
2017-04-03T01:50:56.469Z,0
2017-04-03T01:52:06.380Z,0
2017-04-03T01:53:15.642Z,0
2017-04-03T01:54:24.912Z,0
2017-04-03T01:55:35.057Z,0
2017-04-03T01:56:44.958Z,0
2017-04-03T01:57:54.693Z,0
2017-04-03T01:59:04.718Z,0
2017-04-03T02:00:14.302Z,0
2017-04-03T02:01:24.482Z,0
2017-04-03T02:02:34.062Z,0
2017-04-03T02:03:43.637Z,0
2017-04-03T02:04:52.575Z,0
2017-04-03T02:06:02.160Z,0
2017-04-03T02:07:12.014Z,0
2017-04-03T02:08:21.951Z,0
2017-04-03T02:09:31.926Z,0
2017-04-03T02:10:41.834Z,0
2017-04-03T02:11:51.455Z,0
2017-04-03T02:13:01.700Z,0
2017-04-03T02:14:11.284Z,0
2017-04-03T02:15:21.017Z,0
2017-04-03T02:16:31.088Z,0
2017-04-03T02:17:41.004Z,0
2017-04-03T02:18:51.388Z,0
2017-04-03T02:20:01.377Z,0
2017-04-03T02:21:10.646Z,0
2017-04-03T02:22:20.575Z,0
2017-04-03T02:23:30.268Z,0
2017-04-03T02:24:40.432Z,0
2017-04-03T02:25:50.079Z,0
2017-04-03T02:27:00.134Z,0
2017-04-03T02:28:10.038Z,0
2017-04-03T02:29:19.681Z,0
2017-04-03T02:30:29.976Z,0
2017-04-03T02:31:39.560Z,0
2017-04-03T02:32:49.582Z,0
2017-04-03T02:33:58.863Z,0
2017-04-03T02:35:08.802Z,0
2017-04-03T02:36:18.716Z,0
2017-04-03T02:37:28.066Z,0
2017-04-03T02:38:38.010Z,0
2017-04-03T02:39:47.070Z,0
2017-04-03T02:40:56.985Z,0
2017-04-03T02:42:06.962Z,0
2017-04-03T02:43:16.952Z,0
2017-04-03T02:44:26.886Z,0
2017-04-03T02:45:36.479Z,0
2017-04-03T02:46:46.421Z,0
2017-04-03T02:47:56.719Z,0
2017-04-03T02:49:06.690Z,0
2017-04-03T02:50:16.596Z,0
2017-04-03T02:51:26.529Z,0
2017-04-03T02:52:36.443Z,0
2017-04-03T02:53:46.598Z,0
2017-04-03T02:54:56.211Z,0
2017-04-03T02:56:06.121Z,0
2017-04-03T02:57:16.025Z,0
2017-04-03T02:58:25.722Z,0
2017-04-03T02:59:35.933Z,0
2017-04-03T03:00:45.871Z,0
2017-04-03T03:01:55.768Z,0
2017-04-03T03:03:05.762Z,0
2017-04-03T03:04:15.655Z,0
2017-04-03T03:05:25.583Z,0
2017-04-03T03:06:35.502Z,0
2017-04-03T03:07:45.094Z,0
2017-04-03T03:08:54.722Z,0
2017-04-03T03:10:04.629Z,0
2017-04-03T03:11:14.834Z,0
2017-04-03T03:12:24.778Z,0
2017-04-03T03:13:34.747Z,0
2017-04-03T03:14:44.653Z,0
2017-04-03T03:15:53.922Z,0
2017-04-03T03:17:04.076Z,0
2017-04-03T03:18:13.664Z,0
2017-04-03T03:19:23.654Z,0
2017-04-03T03:20:32.958Z,0
2017-04-03T03:21:42.565Z,0
2017-04-03T03:22:52.494Z,0
2017-04-03T03:24:02.112Z,0
2017-04-03T03:25:12.043Z,0
2017-04-03T03:26:21.336Z,0
2017-04-03T03:27:31.274Z,0
2017-04-03T03:28:41.437Z,0
2017-04-03T03:29:51.335Z,0
2017-04-03T03:31:00.617Z,0
2017-04-03T03:32:10.672Z,0
2017-04-03T03:33:20.643Z,0
2017-04-03T03:34:30.551Z,0
2017-04-03T03:35:40.243Z,0
2017-04-03T03:36:50.200Z,0
2017-04-03T03:38:00.133Z,0
2017-04-03T03:39:10.077Z,0
2017-04-03T03:40:20.275Z,0
2017-04-03T03:41:30.294Z,0
2017-04-03T03:42:40.199Z,0
2017-04-03T03:43:50.094Z,0
2017-04-03T03:45:00.085Z,0
2017-04-03T03:46:09.652Z,0
2017-04-03T03:47:19.594Z,0
2017-04-03T03:48:29.184Z,0
2017-04-03T03:49:39.139Z,0
2017-04-03T03:50:48.726Z,0
2017-04-03T03:51:58.881Z,0
2017-04-03T03:53:08.180Z,0
2017-04-03T03:54:18.170Z,0
2017-04-03T03:55:28.220Z,0
2017-04-03T03:56:37.839Z,0
2017-04-03T03:57:48.148Z,0
2017-04-03T03:58:57.417Z,0
2017-04-03T04:00:07.007Z,0
2017-04-03T04:01:16.909Z,0
2017-04-03T04:02:26.880Z,0
2017-04-03T04:03:36.821Z,0
2017-04-03T04:04:46.758Z,0
2017-04-03T04:05:56.768Z,0
2017-04-03T04:07:06.427Z,0
2017-04-03T04:08:16.391Z,0
2017-04-03T04:09:26.548Z,0
2017-04-03T04:10:36.126Z,0
2017-04-03T04:11:45.856Z,0
2017-04-03T04:12:55.762Z,0
2017-04-03T04:14:05.699Z,4
2017-04-03T04:15:15.527Z,4
2017-04-03T04:16:25.476Z,0
2017-04-03T04:17:35.132Z,4
2017-04-03T04:18:44.715Z,4
2017-04-03T04:19:54.320Z,4
2017-04-03T04:21:04.418Z,4
2017-04-03T04:22:14.093Z,8
2017-04-03T04:23:23.987Z,4
2017-04-03T04:24:33.608Z,8
2017-04-03T04:25:43.515Z,8
2017-04-03T04:26:53.830Z,8
2017-04-03T04:28:03.937Z,8
2017-04-03T04:29:13.879Z,8
2017-04-03T04:30:23.491Z,12
2017-04-03T04:31:33.555Z,16
2017-04-03T04:32:43.701Z,16
2017-04-03T04:33:53.639Z,24
2017-04-03T04:35:03.589Z,20
2017-04-03T04:36:13.177Z,28
2017-04-03T04:37:22.796Z,28
2017-04-03T04:38:32.946Z,32
2017-04-03T04:39:42.918Z,36
2017-04-03T04:40:52.926Z,40
2017-04-03T04:42:02.898Z,52
2017-04-03T04:43:12.605Z,60
2017-04-03T04:44:22.449Z,68
2017-04-03T04:45:32.387Z,76
2017-04-03T04:46:41.982Z,84
2017-04-03T04:47:51.935Z,100
2017-04-03T04:49:01.566Z,116
2017-04-03T04:50:11.422Z,124
2017-04-03T04:51:21.323Z,136
2017-04-03T04:52:31.229Z,156
2017-04-03T04:53:41.177Z,164
2017-04-03T04:54:51.118Z,172
2017-04-03T04:56:01.310Z,184
2017-04-03T04:57:10.980Z,200
2017-04-03T04:58:20.606Z,216
2017-04-03T04:59:30.282Z,224
2017-04-03T05:00:39.904Z,272
2017-04-03T05:01:49.783Z,240
2017-04-03T05:02:59.713Z,244
2017-04-03T05:04:09.304Z,284
2017-04-03T05:05:19.504Z,312
2017-04-03T05:06:29.450Z,364
2017-04-03T05:07:39.822Z,400
2017-04-03T05:08:49.673Z,468
2017-04-03T05:09:59.577Z,528
2017-04-03T05:11:09.514Z,596
2017-04-03T05:12:19.126Z,684
2017-04-03T05:13:29.280Z,708
2017-04-03T05:14:39.229Z,732
2017-04-03T05:15:49.187Z,736
2017-04-03T05:16:58.848Z,628
2017-04-03T05:18:08.853Z,516
2017-04-03T05:19:18.817Z,496
2017-04-03T05:20:28.710Z,496
2017-04-03T05:21:38.293Z,448
2017-04-03T05:22:48.203Z,448
2017-04-03T05:23:57.783Z,444
2017-04-03T05:25:07.991Z,480
2017-04-03T05:26:17.564Z,488
2017-04-03T05:27:27.469Z,528
2017-04-03T05:28:37.524Z,608
2017-04-03T05:29:47.462Z,732
2017-04-03T05:30:57.626Z,708
2017-04-03T05:32:07.556Z,780
2017-04-03T05:33:17.187Z,1220
2017-04-03T05:34:27.152Z,1244
2017-04-03T05:35:36.410Z,1368
2017-04-03T05:36:46.769Z,1428
2017-04-03T05:37:56.390Z,1320
2017-04-03T05:39:06.400Z,1452
2017-04-03T05:40:16.334Z,1408
2017-04-03T05:41:26.243Z,1164
2017-04-03T05:42:36.439Z,1136
2017-04-03T05:43:46.017Z,1124
2017-04-03T05:44:55.921Z,1044
2017-04-03T05:46:05.571Z,1020
2017-04-03T05:47:15.475Z,1076
2017-04-03T05:48:25.345Z,1128
2017-04-03T05:49:34.661Z,1108
2017-04-03T05:50:44.298Z,1144
2017-04-03T05:51:53.886Z,1200
2017-04-03T05:53:03.854Z,1192
2017-04-03T05:54:13.685Z,1212
2017-04-03T05:55:23.590Z,1208
2017-04-03T05:56:33.185Z,1080
2017-04-03T05:57:43.087Z,1104
2017-04-03T05:58:53.151Z,1064
2017-04-03T06:00:03.387Z,1124
2017-04-03T06:01:13.312Z,1196
2017-04-03T06:02:22.623Z,1316
2017-04-03T06:03:31.923Z,1468
2017-04-03T06:04:41.545Z,1544
2017-04-03T06:05:51.722Z,1464
2017-04-03T06:07:01.296Z,1488
2017-04-03T06:08:10.945Z,1672
2017-04-03T06:09:20.522Z,1560
2017-04-03T06:10:30.574Z,1544
2017-04-03T06:11:40.126Z,1532
2017-04-03T06:12:49.748Z,1696
2017-04-03T06:13:59.665Z,1904
2017-04-03T06:15:09.659Z,1876
2017-04-03T06:16:19.250Z,1820
2017-04-03T06:17:29.199Z,1676
2017-04-03T06:18:39.133Z,1912
2017-04-03T06:19:48.853Z,2092
2017-04-03T06:20:58.489Z,1992
2017-04-03T06:22:08.090Z,1708
2017-04-03T06:23:17.954Z,1652
2017-04-03T06:24:27.869Z,1720
2017-04-03T06:25:37.595Z,1588
2017-04-03T06:26:47.559Z,1604
2017-04-03T06:27:57.312Z,1584
2017-04-03T06:29:07.146Z,1608
2017-04-03T06:30:17.273Z,1484
2017-04-03T06:31:26.888Z,1648
2017-04-03T06:32:36.491Z,1860
2017-04-03T06:33:46.394Z,2056
2017-04-03T06:34:56.380Z,1988
2017-04-03T06:36:05.965Z,2056
2017-04-03T06:37:15.917Z,2092
2017-04-03T06:38:25.183Z,2056
2017-04-03T06:39:35.108Z,2248
2017-04-03T06:40:45.323Z,2440
2017-04-03T06:41:54.943Z,2664
2017-04-03T06:43:04.537Z,2856
2017-04-03T06:44:14.982Z,2696
2017-04-03T06:45:24.890Z,2660
2017-04-03T06:46:35.145Z,2556
2017-04-03T06:47:45.042Z,2460
2017-04-03T06:48:54.945Z,2336
2017-04-03T06:50:04.582Z,2260
2017-04-03T06:51:14.478Z,2664
2017-04-03T06:52:24.727Z,3036
2017-04-03T06:53:34.643Z,3016
2017-04-03T06:54:44.296Z,2824
2017-04-03T06:55:54.194Z,3036
2017-04-03T06:57:03.799Z,3688
2017-04-03T06:58:14.041Z,4392
2017-04-03T06:59:23.983Z,4444
2017-04-03T07:00:34.013Z,4572
2017-04-03T07:01:44.008Z,4288
2017-04-03T07:02:53.991Z,4160
2017-04-03T07:04:03.839Z,4732
2017-04-03T07:05:13.748Z,6096
2017-04-03T07:06:23.365Z,7228
2017-04-03T07:07:33.311Z,6908
2017-04-03T07:08:43.052Z,6228
2017-04-03T07:09:52.615Z,5900
2017-04-03T07:11:02.539Z,5692
2017-04-03T07:12:12.515Z,4924
2017-04-03T07:13:22.663Z,4684
2017-04-03T07:14:32.605Z,5204
2017-04-03T07:15:42.850Z,5560
2017-04-03T07:16:52.774Z,5476
2017-04-03T07:18:02.698Z,5516
2017-04-03T07:19:12.606Z,6148
2017-04-03T07:20:22.188Z,6152
2017-04-03T07:21:32.429Z,5608
2017-04-03T07:22:42.372Z,4968
2017-04-03T07:23:52.070Z,4576
2017-04-03T07:25:02.055Z,4452
2017-04-03T07:26:11.975Z,4460
2017-04-03T07:27:22.211Z,4332
2017-04-03T07:28:32.123Z,3932
2017-04-03T07:29:42.029Z,4356
2017-04-03T07:30:51.300Z,4648
2017-04-03T07:32:00.889Z,4608
2017-04-03T07:33:11.058Z,4544
2017-04-03T07:34:21.075Z,4252
2017-04-03T07:35:31.069Z,4548
2017-04-03T07:36:40.652Z,4704
2017-04-03T07:37:50.571Z,4952
2017-04-03T07:38:59.858Z,5128
2017-04-03T07:40:09.931Z,5052
2017-04-03T07:41:19.926Z,5124
2017-04-03T07:42:29.830Z,5196
2017-04-03T07:43:39.899Z,5648
2017-04-03T07:44:50.063Z,5332
2017-04-03T07:45:59.694Z,5216
2017-04-03T07:47:09.596Z,4988
2017-04-03T07:48:19.503Z,4732
2017-04-03T07:49:29.187Z,4464
2017-04-03T07:50:39.355Z,4052
2017-04-03T07:51:49.180Z,4532
2017-04-03T07:52:58.895Z,4192
2017-04-03T07:54:09.119Z,3816
2017-04-03T07:55:18.746Z,4024
2017-04-03T07:56:28.932Z,4248
2017-04-03T07:57:38.560Z,4252
2017-04-03T07:58:48.473Z,4700
2017-04-03T07:59:58.062Z,5292
2017-04-03T08:01:07.972Z,5716
2017-04-03T08:02:17.835Z,6408
2017-04-03T08:03:27.975Z,6588
2017-04-03T08:04:37.894Z,6608
2017-04-03T08:05:47.796Z,6232
2017-04-03T08:06:57.428Z,6616
2017-04-03T08:08:07.670Z,7476
2017-04-03T08:09:17.640Z,7476
2017-04-03T08:10:27.551Z,7452
2017-04-03T08:11:37.415Z,7304
2017-04-03T08:12:47.019Z,6752
2017-04-03T08:13:57.171Z,6760
2017-04-03T08:15:07.420Z,6392
2017-04-03T08:16:17.063Z,6040
2017-04-03T08:17:26.972Z,6736
2017-04-03T08:18:36.282Z,8352
2017-04-03T08:19:46.480Z,8272
2017-04-03T08:20:56.400Z,7268
2017-04-03T08:22:06.340Z,6888
2017-04-03T08:23:16.244Z,7156
2017-04-03T08:24:25.838Z,7164
2017-04-03T08:25:35.381Z,7096
2017-04-03T08:26:44.652Z,7436
2017-04-03T08:27:54.611Z,7632
2017-04-03T08:29:04.782Z,7856
2017-04-03T08:30:14.741Z,7816
2017-04-03T08:31:24.942Z,8140
2017-04-03T08:32:34.549Z,7792
2017-04-03T08:33:44.544Z,7872
2017-04-03T08:34:54.527Z,7712
2017-04-03T08:36:04.175Z,7936
2017-04-03T08:37:14.087Z,8156
2017-04-03T08:38:24.004Z,8004
2017-04-03T08:39:33.658Z,7604
2017-04-03T08:40:43.567Z,7524
2017-04-03T08:41:53.590Z,7920
2017-04-03T08:43:03.472Z,7980
2017-04-03T08:44:13.191Z,8508
2017-04-03T08:45:23.153Z,8040
2017-04-03T08:46:33.142Z,7916
2017-04-03T08:47:43.123Z,9064
2017-04-03T08:48:53.430Z,10808
2017-04-03T08:50:03.380Z,12592
2017-04-03T08:51:12.999Z,12988
2017-04-03T08:52:22.910Z,12004
2017-04-03T08:53:32.900Z,11772
2017-04-03T08:54:42.795Z,9692
2017-04-03T08:55:52.570Z,8956
2017-04-03T08:57:02.518Z,8824
2017-04-03T08:58:11.518Z,8664
2017-04-03T08:59:21.143Z,7816
2017-04-03T09:00:31.125Z,6912
2017-04-03T09:01:41.110Z,6592
2017-04-03T09:02:51.089Z,6824
2017-04-03T09:04:01.034Z,7268
2017-04-03T09:05:10.970Z,7356
2017-04-03T09:06:21.270Z,7252
2017-04-03T09:07:30.229Z,7352
2017-04-03T09:08:40.139Z,7704
2017-04-03T09:09:49.752Z,8096
2017-04-03T09:10:59.376Z,9476
2017-04-03T09:12:09.576Z,8588
2017-04-03T09:13:19.500Z,8820
2017-04-03T09:14:29.423Z,10660
2017-04-03T09:15:39.370Z,10588
2017-04-03T09:16:49.339Z,10064
2017-04-03T09:17:59.251Z,8868
2017-04-03T09:19:08.874Z,7724
2017-04-03T09:20:18.790Z,6948
2017-04-03T09:21:28.377Z,6504
2017-04-03T09:22:38.419Z,5872
2017-04-03T09:23:48.585Z,5608
2017-04-03T09:24:58.176Z,5736
2017-04-03T09:26:08.221Z,6284
2017-04-03T09:27:17.819Z,6736
2017-04-03T09:28:27.409Z,6560
2017-04-03T09:29:37.609Z,6832
2017-04-03T09:30:47.255Z,7708
2017-04-03T09:31:57.160Z,8636
2017-04-03T09:33:07.090Z,9180
2017-04-03T09:34:17.132Z,9056
2017-04-03T09:35:26.380Z,9204
2017-04-03T09:36:36.021Z,9340
2017-04-03T09:37:45.684Z,9796
2017-04-03T09:38:55.583Z,9380
2017-04-03T09:40:05.241Z,8684
2017-04-03T09:41:15.498Z,8804
2017-04-03T09:42:25.437Z,8872
2017-04-03T09:43:35.103Z,9452
2017-04-03T09:44:44.693Z,10608
2017-04-03T09:45:54.393Z,10928
2017-04-03T09:47:04.647Z,10588
2017-04-03T09:48:14.577Z,10652
2017-04-03T09:49:24.518Z,11044
2017-04-03T09:50:33.824Z,11364
2017-04-03T09:51:43.886Z,12156
2017-04-03T09:52:54.096Z,12232
2017-04-03T09:54:03.688Z,11544
2017-04-03T09:55:13.014Z,10680
2017-04-03T09:56:23.039Z,9840
2017-04-03T09:57:32.678Z,8724
2017-04-03T09:58:42.260Z,8476
2017-04-03T09:59:51.566Z,9056
2017-04-03T10:01:01.198Z,8724
2017-04-03T10:02:11.317Z,8856
2017-04-03T10:03:20.703Z,8772
2017-04-03T10:04:30.902Z,9200
2017-04-03T10:05:40.828Z,9448
2017-04-03T10:06:50.815Z,10016
2017-04-03T10:08:00.799Z,11324
2017-04-03T10:09:10.738Z,10888
2017-04-03T10:10:20.264Z,9388
2017-04-03T10:11:29.896Z,7692
2017-04-03T10:12:39.840Z,7076
2017-04-03T10:13:49.471Z,7172
2017-04-03T10:14:59.092Z,7844
2017-04-03T10:16:09.323Z,9360
2017-04-03T10:17:19.298Z,10504
2017-04-03T10:18:28.276Z,11356
2017-04-03T10:19:37.959Z,11836
2017-04-03T10:20:47.888Z,12416
2017-04-03T10:21:57.584Z,13088
2017-04-03T10:23:07.534Z,12872
2017-04-03T10:24:17.517Z,11624
2017-04-03T10:25:27.538Z,9700
2017-04-03T10:26:37.473Z,8504
2017-04-03T10:27:47.332Z,7604
2017-04-03T10:28:56.947Z,6912
2017-04-03T10:30:06.854Z,6304
2017-04-03T10:31:16.877Z,5888
2017-04-03T10:32:26.846Z,6196
2017-04-03T10:33:36.693Z,6696
2017-04-03T10:34:46.773Z,8244
2017-04-03T10:35:56.708Z,8408
2017-04-03T10:37:06.690Z,8200
2017-04-03T10:38:16.614Z,9352
2017-04-03T10:39:26.493Z,9504
2017-04-03T10:40:36.400Z,9436
2017-04-03T10:41:46.433Z,9364
2017-04-03T10:42:56.376Z,10016
2017-04-03T10:44:05.649Z,10236
2017-04-03T10:45:15.856Z,9596
2017-04-03T10:46:25.454Z,8748
2017-04-03T10:47:35.459Z,7944
2017-04-03T10:48:45.379Z,7308
2017-04-03T10:49:55.362Z,7064
2017-04-03T10:51:05.541Z,7544
2017-04-03T10:52:14.888Z,7664
2017-04-03T10:53:24.844Z,7908
2017-04-03T10:54:34.480Z,8400
2017-04-03T10:55:44.089Z,8976
2017-04-03T10:56:54.294Z,9284
2017-04-03T10:58:03.880Z,9408
2017-04-03T10:59:13.798Z,9532
2017-04-03T11:00:23.734Z,9148
2017-04-03T11:01:33.691Z,9124
2017-04-03T11:02:43.420Z,9368
2017-04-03T11:03:53.355Z,9888
2017-04-03T11:05:03.268Z,10724
2017-04-03T11:06:13.190Z,11032
2017-04-03T11:07:22.810Z,11276
2017-04-03T11:08:33.002Z,13392
2017-04-03T11:09:42.679Z,15352
2017-04-03T11:10:52.305Z,16800
2017-04-03T11:12:02.251Z,16672
2017-04-03T11:13:11.918Z,14600
2017-04-03T11:14:22.132Z,13104
2017-04-03T11:15:32.109Z,13040
2017-04-03T11:16:42.048Z,11740
2017-04-03T11:17:51.992Z,10708
2017-04-03T11:19:01.943Z,10268
2017-04-03T11:20:11.883Z,9184
2017-04-03T11:21:21.903Z,8108
2017-04-03T11:22:31.535Z,7448
2017-04-03T11:23:41.141Z,7116
2017-04-03T11:24:51.128Z,7400
2017-04-03T11:26:00.762Z,8696
2017-04-03T11:27:10.809Z,9232
2017-04-03T11:28:20.161Z,8368
2017-04-03T11:29:30.082Z,7252
2017-04-03T11:30:39.699Z,6220
2017-04-03T11:31:49.579Z,5536
2017-04-03T11:32:59.529Z,5168
2017-04-03T11:34:09.481Z,5012
2017-04-03T11:35:19.128Z,5032
2017-04-03T11:36:29.033Z,4832
2017-04-03T11:37:39.309Z,4912
2017-04-03T11:38:49.214Z,5036
2017-04-03T11:39:58.848Z,5184
2017-04-03T11:41:08.465Z,5464
2017-04-03T11:42:17.752Z,5524
2017-04-03T11:43:27.603Z,6156
2017-04-03T11:44:37.620Z,6628
2017-04-03T11:45:47.269Z,6416
2017-04-03T11:46:57.275Z,6816
2017-04-03T11:48:07.255Z,7600
2017-04-03T11:49:17.550Z,8120
2017-04-03T11:50:27.528Z,8176
2017-04-03T11:51:37.127Z,8372
2017-04-03T11:52:46.430Z,8072
2017-04-03T11:53:56.452Z,7916
2017-04-03T11:55:06.668Z,7860
2017-04-03T11:56:16.585Z,7676
2017-04-03T11:57:26.283Z,7516
2017-04-03T11:58:35.917Z,7436
2017-04-03T11:59:45.570Z,7376
2017-04-03T12:00:55.766Z,7240
2017-04-03T12:02:05.438Z,7240
2017-04-03T12:03:15.439Z,7092
2017-04-03T12:04:25.056Z,7116
2017-04-03T12:05:34.660Z,7104
2017-04-03T12:06:44.579Z,6956
2017-04-03T12:07:54.610Z,6788
2017-04-03T12:09:04.512Z,6676
2017-04-03T12:10:14.470Z,6644
2017-04-03T12:11:24.416Z,6616
2017-04-03T12:12:34.306Z,6564
2017-04-03T12:13:43.895Z,6324
2017-04-03T12:14:53.804Z,5992
2017-04-03T12:16:03.756Z,6068
2017-04-03T12:17:13.762Z,6428
2017-04-03T12:18:23.693Z,6744
2017-04-03T12:19:33.609Z,7008
2017-04-03T12:20:43.441Z,7012
2017-04-03T12:21:52.856Z,6724
2017-04-03T12:23:02.475Z,6024
2017-04-03T12:24:12.461Z,6296
2017-04-03T12:25:22.420Z,6720
2017-04-03T12:26:32.067Z,7048
2017-04-03T12:27:42.010Z,7136
2017-04-03T12:28:52.144Z,7040
2017-04-03T12:30:02.477Z,7288
2017-04-03T12:31:12.392Z,7644
2017-04-03T12:32:22.341Z,7848
2017-04-03T12:33:32.297Z,8036
2017-04-03T12:34:42.309Z,8244
2017-04-03T12:35:52.706Z,8476
2017-04-03T12:37:02.605Z,8604
2017-04-03T12:38:12.584Z,8464
2017-04-03T12:39:22.170Z,8392
2017-04-03T12:40:31.906Z,8420
2017-04-03T12:41:41.748Z,8400
2017-04-03T12:42:51.388Z,8300
2017-04-03T12:44:01.341Z,7712
2017-04-03T12:45:11.298Z,7496
2017-04-03T12:46:21.221Z,7492
2017-04-03T12:47:31.063Z,7576
2017-04-03T12:48:40.662Z,7664
2017-04-03T12:49:50.287Z,7776
2017-04-03T12:50:59.885Z,7860
2017-04-03T12:52:09.834Z,7880
2017-04-03T12:53:20.101Z,8032
2017-04-03T12:54:30.089Z,8200
2017-04-03T12:55:39.376Z,8480
2017-04-03T12:56:49.285Z,8692
2017-04-03T12:57:58.904Z,8816
2017-04-03T12:59:08.818Z,8756
2017-04-03T13:00:18.405Z,8196
2017-04-03T13:01:28.010Z,7268
2017-04-03T13:02:37.957Z,6580
2017-04-03T13:03:47.573Z,5760
2017-04-03T13:04:57.519Z,5700
2017-04-03T13:06:07.448Z,6172
2017-04-03T13:07:17.411Z,6876
2017-04-03T13:08:27.413Z,7212
2017-04-03T13:09:37.383Z,6976
2017-04-03T13:10:47.240Z,6724
2017-04-03T13:11:57.191Z,6504
2017-04-03T13:13:06.791Z,6344
2017-04-03T13:14:16.389Z,6340
2017-04-03T13:15:26.339Z,6452
2017-04-03T13:16:36.545Z,6500
2017-04-03T13:17:46.494Z,6640
2017-04-03T13:18:56.463Z,6972
2017-04-03T13:20:06.488Z,7184
2017-04-03T13:21:16.500Z,7376
2017-04-03T13:22:26.826Z,7612
2017-04-03T13:23:36.747Z,7636
2017-04-03T13:24:46.443Z,7600
2017-04-03T13:25:56.445Z,7440
2017-04-03T13:27:06.363Z,7240
2017-04-03T13:28:16.550Z,7084
2017-04-03T13:29:26.474Z,6992
2017-04-03T13:30:36.355Z,6764
2017-04-03T13:31:46.001Z,6524
2017-04-03T13:32:55.916Z,6408
2017-04-03T13:34:06.176Z,6324
2017-04-03T13:35:16.092Z,5960
2017-04-03T13:36:26.083Z,5436
2017-04-03T13:37:36.001Z,5100
2017-04-03T13:38:45.633Z,5520
2017-04-03T13:39:55.856Z,6044
2017-04-03T13:41:05.472Z,6448
2017-04-03T13:42:15.394Z,6724
2017-04-03T13:43:25.344Z,6968
2017-04-03T13:44:35.256Z,7172
2017-04-03T13:45:45.491Z,7276
2017-04-03T13:46:55.671Z,7188
2017-04-03T13:48:05.874Z,7216
2017-04-03T13:49:15.780Z,7260
2017-04-03T13:50:25.717Z,7292
2017-04-03T13:51:35.927Z,7376
2017-04-03T13:52:45.845Z,7572
2017-04-03T13:53:55.777Z,7756
2017-04-03T13:55:05.395Z,8024
2017-04-03T13:56:15.043Z,8308
2017-04-03T13:57:24.938Z,8760
2017-04-03T13:58:34.992Z,9032
2017-04-03T13:59:44.901Z,8812
2017-04-03T14:00:54.541Z,8332
2017-04-03T14:02:04.344Z,7884
2017-04-03T14:03:14.556Z,7440
2017-04-03T14:04:24.476Z,7120
2017-04-03T14:05:34.467Z,6980
2017-04-03T14:06:44.378Z,6696
2017-04-03T14:07:54.366Z,6308
2017-04-03T14:09:04.441Z,5960
2017-04-03T14:10:14.361Z,5748
2017-04-03T14:11:23.972Z,5500
2017-04-03T14:12:33.878Z,5184
2017-04-03T14:13:43.481Z,5112
2017-04-03T14:14:53.397Z,5176
2017-04-03T14:16:03.362Z,5168
2017-04-03T14:17:13.363Z,5128
2017-04-03T14:18:23.281Z,4932
2017-04-03T14:19:33.297Z,4512
2017-04-03T14:20:43.198Z,4176
2017-04-03T14:21:53.001Z,4040
2017-04-03T14:23:02.291Z,4164
2017-04-03T14:24:11.965Z,4452
2017-04-03T14:25:21.870Z,4656
2017-04-03T14:26:32.076Z,4724
2017-04-03T14:27:41.993Z,4736
2017-04-03T14:28:51.584Z,4828
2017-04-03T14:30:01.569Z,4792
2017-04-03T14:31:11.486Z,4660
2017-04-03T14:32:21.353Z,4720
2017-04-03T14:33:31.332Z,4928
2017-04-03T14:34:40.958Z,5172
2017-04-03T14:35:50.546Z,5264
2017-04-03T14:37:00.529Z,5284
2017-04-03T14:38:10.891Z,5148
2017-04-03T14:39:20.816Z,4864
2017-04-03T14:40:30.727Z,4616
2017-04-03T14:41:40.481Z,4516
2017-04-03T14:42:49.780Z,4508
2017-04-03T14:44:00.335Z,4604
2017-04-03T14:45:09.961Z,4776
2017-04-03T14:46:19.548Z,4840
2017-04-03T14:47:29.512Z,4840
2017-04-03T14:48:39.454Z,4876
2017-04-03T14:49:49.639Z,4792
2017-04-03T14:50:59.344Z,4624
2017-04-03T14:52:09.301Z,4516
2017-04-03T14:53:18.943Z,4460
2017-04-03T14:54:28.538Z,4424
2017-04-03T14:55:38.674Z,4472
2017-04-03T14:56:48.691Z,4468
2017-04-03T14:57:58.639Z,4316
2017-04-03T14:59:08.585Z,4232
2017-04-03T15:00:18.550Z,4180
2017-04-03T15:01:28.879Z,4160
2017-04-03T15:02:38.194Z,4212
2017-04-03T15:03:48.114Z,4312
2017-04-03T15:04:57.879Z,4400
2017-04-03T15:06:07.833Z,4500
2017-04-03T15:07:18.096Z,4516
2017-04-03T15:08:27.418Z,4604
2017-04-03T15:09:37.392Z,4636
2017-04-03T15:10:47.013Z,4612
2017-04-03T15:11:57.013Z,4536
2017-04-03T15:13:07.273Z,4452
2017-04-03T15:14:16.891Z,4420
2017-04-03T15:15:26.885Z,4428
2017-04-03T15:16:36.802Z,4096
2017-04-03T15:17:46.714Z,3752
2017-04-03T15:18:57.020Z,3560
2017-04-03T15:20:06.629Z,3356
2017-04-03T15:21:16.554Z,3200
2017-04-03T15:22:26.504Z,3024
2017-04-03T15:23:36.419Z,3008
2017-04-03T15:24:46.605Z,3124
2017-04-03T15:25:56.649Z,3348
2017-04-03T15:27:06.652Z,3496
2017-04-03T15:28:16.570Z,3492
2017-04-03T15:29:26.267Z,3524
2017-04-03T15:30:36.427Z,3452
2017-04-03T15:31:46.356Z,3164
2017-04-03T15:32:55.970Z,2800
2017-04-03T15:34:05.960Z,2600
2017-04-03T15:35:15.911Z,2664
2017-04-03T15:36:26.154Z,2768
2017-04-03T15:37:36.161Z,2760
2017-04-03T15:38:46.120Z,2720
2017-04-03T15:39:56.034Z,2732
2017-04-03T15:41:05.349Z,2824
2017-04-03T15:42:15.529Z,2836
2017-04-03T15:43:25.575Z,2756
2017-04-03T15:44:34.863Z,2704
2017-04-03T15:45:44.530Z,2648
2017-04-03T15:46:54.132Z,2616
2017-04-03T15:48:04.034Z,2784
2017-04-03T15:49:14.022Z,2816
2017-04-03T15:50:23.301Z,2776
2017-04-03T15:51:33.221Z,2728
2017-04-03T15:52:43.202Z,2700
2017-04-03T15:53:53.124Z,2736
2017-04-03T15:55:02.784Z,2800
2017-04-03T15:56:12.782Z,2848
2017-04-03T15:57:22.757Z,2912